Time;durP1;ratioP1;P1;durP2;ratioP2;P2;SDS_P1;SDS_P2;PMS_P1;PMS_P2;Temp;Humidity;BMP_temperature;BMP_pressure;BME280_temperature;BME280_humidity;BME280_pressure;Samples;Min_cycle;Max_cycle;Signal;HPM_P1;HPM_P2
2021/07/11 00:00:49;;;;;;;8.68;5.68;;;20.00;99.90;;;;;;5002573;28;20030;-90
2021/07/11 00:03:15;;;;;;;8.07;6.05;;;20.00;99.90;;;;;;5002323;28;20040;-91
2021/07/11 00:05:41;;;;;;;8.35;5.60;;;20.00;99.90;;;;;;5002224;28;20022;-91
2021/07/11 00:08:09;;;;;;;6.75;5.30;;;20.00;99.90;;;;;;5032399;28;20057;-89
2021/07/11 00:10:37;;;;;;;7.20;5.60;;;20.00;99.90;;;;;;5037662;28;20095;-90
2021/07/11 00:13:03;;;;;;;6.72;5.22;;;20.00;99.90;;;;;;5039080;28;20033;-92
2021/07/11 00:15:28;;;;;;;7.38;5.47;;;20.00;99.90;;;;;;5038992;28;20543;-90
2021/07/11 00:17:56;;;;;;;6.40;4.90;;;20.00;99.90;;;;;;5038504;28;20025;-89
2021/07/11 00:20:23;;;;;;;6.93;5.22;;;20.10;99.90;;;;;;5039880;28;20029;-92
2021/07/11 00:22:49;;;;;;;6.60;5.10;;;20.10;99.90;;;;;;5039457;28;20022;-86
2021/07/11 00:25:15;;;;;;;7.63;5.82;;;20.00;99.90;;;;;;5039842;28;20097;-88
2021/07/11 00:27:43;;;;;;;6.95;5.53;;;20.00;99.90;;;;;;5038111;28;20116;-88
2021/07/11 00:30:10;;;;;;;7.93;7.03;;;20.00;99.90;;;;;;5038105;28;20041;-89
2021/07/11 00:32:36;;;;;;;8.57;6.90;;;19.90;99.90;;;;;;5038447;28;20036;-87
2021/07/11 00:35:02;;;;;;;9.40;7.05;;;19.90;99.90;;;;;;5037194;28;20036;-89
2021/07/11 00:37:38;;;;;;;10.52;7.50;;;19.80;99.90;;;;;;5037870;28;20396;-92
2021/07/11 00:40:05;;;;;;;9.10;7.97;;;19.80;99.90;;;;;;5039078;28;20037;-92
2021/07/11 00:42:31;;;;;;;10.32;7.22;;;19.70;99.90;;;;;;5038777;28;20029;-91
2021/07/11 00:44:57;;;;;;;9.70;7.20;;;19.60;99.90;;;;;;5043980;28;20094;-89
2021/07/11 00:47:22;;;;;;;8.32;7.07;;;19.60;99.90;;;;;;5043068;28;20042;-89
2021/07/11 00:49:48;;;;;;;8.07;6.35;;;19.60;99.90;;;;;;5039064;28;20037;-88
2021/07/11 00:52:14;;;;;;;7.57;6.13;;;19.60;99.90;;;;;;5043877;28;20033;-89
2021/07/11 00:54:40;;;;;;;8.65;7.05;;;19.60;99.90;;;;;;5042185;28;20026;-91
2021/07/11 00:57:06;;;;;;;7.68;6.25;;;19.60;99.90;;;;;;5038678;28;20052;-88
2021/07/11 00:59:42;;;;;;;6.45;5.45;;;19.60;99.90;;;;;;5038607;28;20022;-91
2021/07/11 01:02:17;;;;;;;8.35;5.90;;;19.60;99.90;;;;;;5038511;28;20029;-90
2021/07/11 01:05:05;;;;;;;7.95;6.25;;;19.60;99.90;;;;;;5039201;28;20041;-90
2021/07/11 01:07:36;;;;;;;7.70;5.95;;;19.60;99.90;;;;;;5038633;28;20046;-89
2021/07/11 01:10:13;;;;;;;7.20;6.25;;;19.50;99.90;;;;;;5042835;28;20037;-90
2021/07/11 01:12:44;;;;;;;7.82;6.13;;;19.50;99.90;;;;;;5041494;28;20045;-89
2021/07/11 01:15:11;;;;;;;9.73;6.85;;;19.50;99.90;;;;;;5041833;28;20040;-90
2021/07/11 01:17:38;;;;;;;7.80;6.93;;;19.40;99.90;;;;;;5041089;28;20092;-92
2021/07/11 01:20:33;;;;;;;8.02;6.07;;;19.40;99.90;;;;;;5040825;28;20052;-91
2021/07/11 01:23:00;;;;;;;7.25;5.85;;;19.40;99.90;;;;;;5042508;28;20052;-92
2021/07/11 01:25:32;;;;;;;8.07;5.95;;;19.40;99.90;;;;;;5041494;28;20036;-90
2021/07/11 01:27:58;;;;;;;7.60;6.30;;;19.40;99.90;;;;;;5040635;28;20026;-88
2021/07/11 01:30:24;;;;;;;7.47;6.32;;;19.40;99.90;;;;;;5042411;28;20052;-89
2021/07/11 01:32:50;;;;;;;9.48;5.95;;;19.30;99.90;;;;;;5042264;28;20029;-89
2021/07/11 01:35:17;;;;;;;9.40;6.82;;;19.30;99.90;;;;;;5041827;28;20041;-89
2021/07/11 01:37:43;;;;;;;8.18;6.35;;;19.30;99.90;;;;;;5041754;28;20045;-90
2021/07/11 01:40:12;;;;;;;9.23;6.85;;;19.30;99.90;;;;;;5042171;28;20056;-91
2021/07/11 01:42:40;;;;;;;10.15;7.80;;;19.20;99.90;;;;;;5042667;28;20041;-88
2021/07/11 01:45:07;;;;;;;8.50;6.78;;;19.20;99.90;;;;;;5041729;28;20108;-92
2021/07/11 01:47:34;;;;;;;8.32;6.72;;;19.20;99.90;;;;;;5041838;28;20551;-91
2021/07/11 01:50:01;;;;;;;7.90;6.70;;;19.20;99.90;;;;;;5044945;28;20043;-90
2021/07/11 01:52:27;;;;;;;7.35;6.22;;;19.20;99.90;;;;;;5050591;28;20034;-90
2021/07/11 01:54:53;;;;;;;9.35;6.95;;;19.20;99.90;;;;;;5051622;28;20105;-90
2021/07/11 01:57:19;;;;;;;8.20;6.53;;;19.20;99.90;;;;;;5049699;28;20021;-88
2021/07/11 01:59:44;;;;;;;8.30;7.00;;;19.20;99.90;;;;;;5049093;28;20048;-89
2021/07/11 02:02:10;;;;;;;9.13;6.75;;;19.20;99.90;;;;;;5048396;28;20033;-88
2021/07/11 02:04:36;;;;;;;8.38;6.97;;;19.20;99.90;;;;;;5026625;28;20038;-92
2021/07/11 02:07:01;;;;;;;8.98;7.07;;;19.20;99.90;;;;;;5042307;28;20053;-87
2021/07/11 02:09:27;;;;;;;8.55;6.82;;;19.20;99.90;;;;;;5044152;28;20033;-89
2021/07/11 02:11:54;;;;;;;10.13;7.00;;;19.10;99.90;;;;;;5040553;28;20060;-89
2021/07/11 02:14:24;;;;;;;9.00;6.63;;;19.10;99.90;;;;;;5040259;28;20398;-88
2021/07/11 02:17:02;;;;;;;10.05;7.13;;;19.10;99.90;;;;;;5039170;28;20468;-89
2021/07/11 02:19:28;;;;;;;7.68;6.65;;;19.00;99.90;;;;;;5039639;28;20033;-90
2021/07/11 02:21:55;;;;;;;7.63;6.43;;;19.00;99.90;;;;;;5039045;28;20068;-91
2021/07/11 02:24:22;;;;;;;8.40;6.93;;;19.00;99.90;;;;;;5040067;28;20029;-92
2021/07/11 02:26:50;;;;;;;9.70;7.68;;;19.00;99.90;;;;;;5040486;28;20056;-92
2021/07/11 02:29:15;;;;;;;8.05;6.95;;;18.90;99.90;;;;;;5040125;28;20036;-92
2021/07/11 02:31:41;;;;;;;8.23;6.80;;;18.90;99.90;;;;;;5040014;28;20041;-91
2021/07/11 02:34:09;;;;;;;7.40;6.13;;;18.90;99.90;;;;;;5039613;28;20033;-90
2021/07/11 02:36:36;;;;;;;8.35;6.95;;;18.90;99.90;;;;;;5039244;28;20132;-89
2021/07/11 02:39:15;;;;;;;7.68;6.38;;;18.90;99.90;;;;;;5039566;28;20459;-89
2021/07/11 02:42:03;;;;;;;8.18;6.63;;;18.90;99.90;;;;;;5040152;28;20025;-91
2021/07/11 02:44:30;;;;;;;8.65;6.65;;;18.90;99.90;;;;;;5039810;28;20034;-90
2021/07/11 02:47:13;;;;;;;9.27;6.75;;;18.90;99.90;;;;;;5039513;28;20120;-89
2021/07/11 02:49:44;;;;;;;7.57;6.10;;;18.90;99.90;;;;;;5040490;28;20043;-90
2021/07/11 02:52:10;;;;;;;8.88;7.10;;;18.90;99.90;;;;;;5039346;28;20033;-89
2021/07/11 02:54:41;;;;;;;11.05;8.10;;;18.90;99.90;;;;;;5039928;28;20052;-89
2021/07/11 02:57:08;;;;;;;10.73;7.55;;;18.90;99.90;;;;;;5039456;28;20080;-90
2021/07/11 02:59:35;;;;;;;7.85;6.13;;;18.80;99.90;;;;;;5039785;28;20634;-92
2021/07/11 03:02:03;;;;;;;8.55;7.60;;;18.80;99.90;;;;;;5039540;28;20032;-90
2021/07/11 03:04:31;;;;;;;8.13;6.80;;;18.90;99.90;;;;;;5039887;28;20079;-90
2021/07/11 03:06:58;;;;;;;9.32;6.72;;;18.90;99.90;;;;;;5039632;28;20045;-90
2021/07/11 03:09:24;;;;;;;9.13;7.57;;;18.90;99.90;;;;;;5039750;28;20128;-90
2021/07/11 03:11:50;;;;;;;8.95;7.03;;;18.90;99.90;;;;;;5039552;28;20068;-92
2021/07/11 03:14:16;;;;;;;8.88;7.30;;;18.90;99.90;;;;;;5040000;28;20032;-92
2021/07/11 03:16:51;;;;;;;8.02;6.20;;;18.90;99.90;;;;;;5039332;28;20048;-92
2021/07/11 03:19:18;;;;;;;8.07;6.97;;;19.00;99.90;;;;;;5040352;28;20101;-90
2021/07/11 03:21:46;;;;;;;9.23;7.53;;;19.00;99.90;;;;;;5039748;28;20026;-92
2021/07/11 03:24:12;;;;;;;9.48;7.20;;;19.00;99.90;;;;;;5040165;28;20064;-91
2021/07/11 03:26:40;;;;;;;9.23;7.28;;;19.00;99.90;;;;;;5040426;28;20025;-90
2021/07/11 03:29:17;;;;;;;8.23;6.53;;;19.00;99.90;;;;;;5040125;28;20083;-91
2021/07/11 03:31:45;;;;;;;8.30;6.97;;;19.00;99.90;;;;;;5039516;28;20037;-89
2021/07/11 03:34:12;;;;;;;7.95;6.72;;;18.90;99.90;;;;;;5040364;28;20029;-91
2021/07/11 03:36:38;;;;;;;9.65;7.47;;;18.90;99.90;;;;;;5042987;28;20037;-90
2021/07/11 03:39:06;;;;;;;10.15;7.30;;;18.90;99.90;;;;;;5045226;28;20076;-91
2021/07/11 03:41:37;;;;;;;9.38;8.25;;;18.90;99.90;;;;;;5044287;28;20037;-89
2021/07/11 03:44:04;;;;;;;10.20;8.15;;;18.90;99.90;;;;;;5043357;28;20064;-89
2021/07/11 03:46:33;;;;;;;10.18;7.57;;;18.90;99.90;;;;;;5044169;28;20044;-89
2021/07/11 03:49:03;;;;;;;11.40;8.40;;;18.80;99.90;;;;;;5043712;28;20044;-89
2021/07/11 03:51:32;;;;;;;10.68;9.00;;;18.80;99.90;;;;;;5041456;28;20113;-89
2021/07/11 03:53:59;;;;;;;11.45;8.70;;;18.80;99.90;;;;;;5039624;28;20116;-88
2021/07/11 03:56:30;;;;;;;11.65;8.73;;;18.80;99.90;;;;;;5038780;28;20033;-92
2021/07/11 03:58:58;;;;;;;10.40;7.95;;;18.80;99.90;;;;;;5043547;28;20124;-90
2021/07/11 04:01:33;;;;;;;9.77;8.50;;;18.70;99.90;;;;;;5046195;28;20605;-91
2021/07/11 04:04:08;;;;;;;10.80;8.07;;;18.60;99.90;;;;;;5046174;28;20034;-87
2021/07/11 04:06:37;;;;;;;10.85;9.50;;;18.60;99.90;;;;;;5044933;28;20053;-90
2021/07/11 04:09:06;;;;;;;12.43;10.15;;;18.60;99.90;;;;;;5042459;28;20132;-91
2021/07/11 04:11:38;;;;;;;12.80;10.15;;;18.60;99.90;;;;;;5044621;28;20065;-90
2021/07/11 04:14:11;;;;;;;11.25;9.25;;;18.50;99.90;;;;;;5045164;28;20038;-88
2021/07/11 04:16:37;;;;;;;11.20;9.70;;;18.50;99.90;;;;;;5040585;28;20049;-91
2021/07/11 04:19:03;;;;;;;14.15;10.48;;;18.40;99.90;;;;;;5039088;28;20039;-90
2021/07/11 04:21:32;;;;;;;11.80;9.48;;;18.40;99.90;;;;;;5037763;28;20045;-88
2021/07/11 04:23:58;;;;;;;11.32;9.35;;;18.40;99.90;;;;;;5041007;28;20072;-89
2021/07/11 04:26:25;;;;;;;10.80;8.50;;;18.40;99.90;;;;;;5040087;28;20059;-88
2021/07/11 04:28:53;;;;;;;11.15;8.75;;;18.40;99.90;;;;;;5038869;28;20045;-85
2021/07/11 04:31:19;;;;;;;12.50;10.27;;;18.40;99.90;;;;;;5040710;28;20033;-86
2021/07/11 04:33:46;;;;;;;10.93;8.50;;;18.40;99.90;;;;;;5039349;28;20479;-90
2021/07/11 04:36:12;;;;;;;13.30;8.93;;;18.40;99.90;;;;;;5039362;28;20029;-90
2021/07/11 04:38:38;;;;;;;11.98;9.93;;;18.40;99.90;;;;;;5038640;28;20049;-90
2021/07/11 04:41:14;;;;;;;11.85;9.63;;;18.40;99.90;;;;;;5042389;28;20037;-92
2021/07/11 04:43:44;;;;;;;12.20;10.50;;;18.40;99.90;;;;;;5048542;28;20037;-88
2021/07/11 04:46:13;;;;;;;12.50;10.90;;;18.40;99.90;;;;;;5046939;28;20299;-91
2021/07/11 04:48:56;;;;;;;13.27;10.93;;;18.40;99.90;;;;;;5049049;28;20041;-89
2021/07/11 04:51:44;;;;;;;11.15;9.63;;;18.40;99.90;;;;;;5046327;23;20429;-87
2021/07/11 04:54:11;;;;;;;10.82;9.25;;;18.40;99.90;;;;;;5039903;28;20038;-87
2021/07/11 04:56:40;;;;;;;12.60;9.52;;;18.40;99.90;;;;;;5017470;28;20029;-87
2021/07/11 04:59:09;;;;;;;10.98;9.52;;;18.40;99.90;;;;;;5042313;28;20033;-87
2021/07/11 05:01:36;;;;;;;12.65;10.75;;;18.40;99.90;;;;;;5034575;28;20043;-87
2021/07/11 05:04:03;;;;;;;12.15;10.30;;;18.50;99.90;;;;;;5041260;28;20087;-87
2021/07/11 05:06:28;;;;;;;13.75;10.75;;;18.50;99.90;;;;;;5041936;28;20030;-87
2021/07/11 05:08:54;;;;;;;13.15;9.95;;;18.50;99.90;;;;;;5036166;28;20040;-87
2021/07/11 05:11:24;;;;;;;12.73;10.60;;;18.50;99.90;;;;;;5041170;28;20057;-86
2021/07/11 05:13:51;;;;;;;13.82;11.05;;;18.50;99.90;;;;;;5036844;28;20066;-87
2021/07/11 05:16:21;;;;;;;13.32;10.57;;;18.60;99.90;;;;;;5023266;28;20049;-88
2021/07/11 05:18:48;;;;;;;13.10;10.63;;;18.60;99.90;;;;;;5042074;28;20033;-88
2021/07/11 05:21:15;;;;;;;12.10;10.02;;;18.60;99.90;;;;;;5041738;28;20056;-88
2021/07/11 05:23:43;;;;;;;11.88;9.50;;;18.60;99.90;;;;;;5041654;28;20112;-87
2021/07/11 05:26:09;;;;;;;11.57;9.75;;;18.60;99.90;;;;;;5043904;28;20081;-88
2021/07/11 05:28:35;;;;;;;13.93;11.27;;;18.70;99.90;;;;;;5035843;28;20063;-86
2021/07/11 05:31:07;;;;;;;12.45;10.13;;;18.70;99.90;;;;;;5040665;28;20120;-87
2021/07/11 05:33:34;;;;;;;13.57;10.00;;;18.60;99.90;;;;;;5034750;28;20041;-86
2021/07/11 05:36:22;;;;;;;13.23;10.85;;;18.60;99.90;;;;;;5047751;28;20030;-85
2021/07/11 05:39:09;;;;;;;11.93;10.25;;;18.60;99.90;;;;;;5040921;28;20045;-88
2021/07/11 05:41:37;;;;;;;13.77;10.55;;;18.60;99.90;;;;;;5043490;28;20040;-87
2021/07/11 05:44:09;;;;;;;11.88;10.30;;;18.50;99.90;;;;;;5040561;28;20472;-88
2021/07/11 05:46:37;;;;;;;14.95;12.10;;;18.50;99.90;;;;;;5044526;28;20482;-88
2021/07/11 05:49:07;;;;;;;13.57;11.15;;;18.50;99.90;;;;;;5040732;28;20042;-88
2021/07/11 05:51:33;;;;;;;13.75;10.65;;;18.50;99.90;;;;;;5037908;28;20053;-89
2021/07/11 05:54:01;;;;;;;11.50;9.90;;;18.50;99.90;;;;;;5043434;28;20041;-88
2021/07/11 05:56:29;;;;;;;12.20;10.90;;;18.50;99.90;;;;;;5046453;28;20053;-88
2021/07/11 05:58:56;;;;;;;12.57;10.80;;;18.50;99.90;;;;;;5043138;28;20033;-88
2021/07/11 06:01:22;;;;;;;15.48;11.50;;;18.60;99.90;;;;;;5043457;28;20459;-87
2021/07/11 06:03:48;;;;;;;14.25;11.90;;;18.60;99.90;;;;;;5042849;28;20061;-88
2021/07/11 06:06:14;;;;;;;13.68;10.60;;;18.60;99.90;;;;;;5009617;28;20057;-88
2021/07/11 06:08:40;;;;;;;15.27;12.73;;;18.70;99.90;;;;;;5042984;28;20048;-88
2021/07/11 06:11:07;;;;;;;12.93;11.55;;;18.70;99.90;;;;;;5042522;28;20477;-88
2021/07/11 06:13:33;;;;;;;14.75;11.35;;;18.70;99.90;;;;;;5042028;28;20028;-87
2021/07/11 06:15:58;;;;;;;13.25;11.35;;;18.80;99.90;;;;;;5041196;28;20041;-86
2021/07/11 06:18:24;;;;;;;14.48;12.10;;;18.80;99.90;;;;;;5041781;28;20044;-87
2021/07/11 06:20:54;;;;;;;15.65;12.75;;;18.80;99.90;;;;;;5059517;28;20108;-87
2021/07/11 06:23:23;;;;;;;13.27;11.15;;;18.90;99.90;;;;;;5042443;28;20055;-86
2021/07/11 06:25:50;;;;;;;16.52;12.02;;;18.80;99.90;;;;;;5063079;28;20099;-87
2021/07/11 06:28:17;;;;;;;12.93;11.05;;;18.80;99.90;;;;;;5062308;28;20053;-88
2021/07/11 06:30:53;;;;;;;15.00;12.25;;;18.80;99.90;;;;;;5045332;28;20051;-87
2021/07/11 06:33:22;;;;;;;14.55;12.05;;;18.80;99.90;;;;;;5030730;28;20120;-87
2021/07/11 06:36:21;;;;;;;15.25;12.27;;;18.90;99.90;;;;;;5025525;28;20043;-88
2021/07/11 06:38:47;;;;;;;16.02;13.65;;;18.90;99.90;;;;;;5052011;28;20041;-87
2021/07/11 06:41:16;;;;;;;18.75;15.18;;;18.90;99.90;;;;;;5056182;28;20037;-87
2021/07/11 06:44:03;;;;;;;15.35;13.13;;;19.00;99.90;;;;;;5042461;28;20040;-86
2021/07/11 06:46:31;;;;;;;16.98;14.57;;;19.00;99.90;;;;;;5041848;28;20041;-88
2021/07/11 06:48:56;;;;;;;19.13;15.80;;;19.10;99.90;;;;;;5024464;28;20033;-86
2021/07/11 06:51:28;;;;;;;19.10;15.40;;;19.20;99.90;;;;;;5021275;28;20523;-88
2021/07/11 06:54:04;;;;;;;20.15;17.40;;;19.40;99.90;;;;;;5042105;28;20127;-89
2021/07/11 06:56:51;;;;;;;20.67;16.65;;;19.60;99.90;;;;;;5040772;28;20037;-89
2021/07/11 06:59:19;;;;;;;16.13;13.32;;;19.60;99.90;;;;;;5059046;28;20558;-88
2021/07/11 07:01:50;;;;;;;18.98;16.20;;;19.70;99.90;;;;;;5042446;28;20045;-89
2021/07/11 07:16:32;;;;;;;16.77;13.75;;;19.90;99.90;;;;;;4943499;29;20119;-90
2021/07/11 07:19:10;;;;;;;16.38;12.43;;;20.00;99.90;;;;;;5015640;28;20052;-90
2021/07/11 07:22:37;;;;;;;;;;;;;;;;;;;;;
2021/07/11 07:25:24;;;;;;;19.80;17.55;;;20.40;99.90;;;;;;5047813;28;20246;-88
2021/07/11 07:28:03;;;;;;;18.27;15.20;;;20.60;99.90;;;;;;5014253;28;20041;-90
2021/07/11 07:37:34;;;;;;;21.77;18.55;;;21.30;99.90;;;;;;5020188;28;20056;-91
2021/07/11 07:40:50;;;;;;;20.40;16.88;;;21.50;99.90;;;;;;5036948;28;20053;-90
2021/07/11 07:43:32;;;;;;;;;;;;;;;;;;;;;
2021/07/11 07:46:48;;;;;;;;;;;;;;;;;;;;;
2021/07/11 07:57:15;;;;;;;;;;;;;;;;;;;;;
2021/07/11 08:04:16;;;;;;;;;;;;;;;;;;;;;
2021/07/11 08:07:07;;;;;;;23.13;19.88;;;21.40;99.90;;;;;;4896279;29;20036;-89
2021/07/11 08:10:16;;;;;;;;;;;;;;;;;;;;;
2021/07/11 08:16:56;;;;;;;27.08;23.27;;;21.50;99.90;;;;;;4956241;28;20071;-89
2021/07/11 08:20:10;;;;;;;;;;;;;;;;;;;;;
2021/07/11 08:30:36;;;;;;;;;;;;;;;;;;;;;
2021/07/11 08:34:04;;;;;;;;;;;;;;;;;;;;;
2021/07/11 08:47:55;;;;;;;;;;;;;;;;;;;;;
2021/07/11 08:57:35;;;;;;;20.35;17.02;;;21.30;99.90;;;;;;4733824;30;20462;-89
2021/07/11 09:00:23;;;;;;;17.55;14.90;;;21.30;99.90;;;;;;4732212;30;20056;-89
2021/07/11 09:03:26;;;;;;;;;;;;;;;;;;;;;
2021/07/11 09:13:12;;;;;;;;;;;;;;;;;;;;;
2021/07/11 09:45:14;;;;;;;;;;;;;;;;;;;;;
2021/07/11 10:02:17;;;;;;;12.98;10.52;;;25.70;99.90;;;;;;4708951;30;20084;-89
2021/07/11 10:05:17;;;;;;;;;;;;;;;;;;;;;
2021/07/11 10:08:58;;;;;;;;;;;;;;;;;;;;;
2021/07/11 10:48:26;;;;;;;13.85;11.52;;;25.20;99.90;;;;;;5045296;28;20401;-91
2021/07/11 10:55:10;;;;;;;;;;;25.10;99.90;;;;;;4904956;29;20048;-90
2021/07/11 10:58:16;;;;;;;;;;;;;;;;;;;;;
2021/07/11 11:04:49;;;;;;;;;;;;;;;;;;;;;
2021/07/11 11:11:34;;;;;;;;;;;;;;;;;;;;;
2021/07/11 11:18:45;;;;;;;;;;;;;;;;;;;;;
2021/07/11 11:25:39;;;;;;;;;;;;;;;;;;;;;
2021/07/11 11:32:11;;;;;;;;;;;;;;;;;;;;;
2021/07/11 11:35:09;;;;;;;;;;;;;;;;;;;;;
2021/07/11 11:41:37;;;;;;;10.25;7.63;;;29.60;95.10;;;;;;4929285;29;20131;-91
2021/07/11 11:48:16;;;;;;;7.93;6.90;;;28.90;95.50;;;;;;5010232;28;20076;-88
2021/07/11 11:54:58;;;;;;;7.88;6.28;;;28.10;95.90;;;;;;4982968;28;20066;-89
2021/07/11 12:05:24;;;;;;;;;;;;;;;;;;;;;
2021/07/11 12:12:18;;;;;;;6.28;5.32;;;29.40;92.60;;;;;;4839695;29;20046;-89
2021/07/11 12:15:55;;;;;;;;;;;;;;;;;;;;;
2021/07/11 12:30:07;;;;;;;;;;;;;;;;;;;;;
2021/07/11 12:40:50;;;;;;;;;;;;;;;;;;;;;
2021/07/11 12:47:14;;;;;;;5.65;4.97;;;29.60;91.40;;;;;;4834545;29;20049;-90
2021/07/11 12:50:48;;;;;;;;;;;;;;;;;;;;;
2021/07/11 13:01:05;;;;;;;5.45;4.85;;;28.10;92.20;;;;;;4841562;29;20483;-91
2021/07/11 13:07:02;;;;;;;7.13;5.57;;;28.00;92.70;;;;;;4821957;29;20053;-88
2021/07/11 13:13:50;;;;;;;7.88;6.68;;;27.80;92.40;;;;;;4783404;29;20082;-87
2021/07/11 13:20:41;;;;;;;;;;;;;;;;;;;;;
2021/07/11 13:24:04;;;;;;;;;;;;;;;;;;;;;
2021/07/11 13:26:57;;;;;;;6.88;5.95;;;27.50;92.20;;;;;;4839757;29;20041;-89
2021/07/11 13:29:44;;;;;;;6.75;5.90;;;27.40;92.30;;;;;;4858296;29;20093;-88
2021/07/11 13:32:46;;;;;;;;;;;;;;;;;;;;;
2021/07/11 13:35:47;;;;;;;;;;;;;;;;;;;;;
2021/07/11 13:38:30;;;;;;;6.72;5.40;;;27.50;92.40;;;;;;4968134;28;20031;-87
2021/07/11 13:41:05;;;;;;;;;;;27.50;92.50;;;;;;4900293;28;20902;-86
2021/07/11 13:43:40;;;;;;;11.02;7.20;;;27.30;92.00;;;;;;4809141;28;20670;-86
2021/07/11 13:46:21;;;;;;;;;;;;;;;;;;;;;
2021/07/11 13:49:08;;;;;;;;;;;;;;;;;;;;;
2021/07/11 13:51:50;;;;;;;6.25;5.43;;;27.60;92.60;;;;;;4971435;28;20526;-86
2021/07/11 13:54:39;;;;;;;5.77;5.13;;;28.10;92.60;;;;;;4936266;28;20062;-87
2021/07/11 13:57:45;;;;;;;6.88;6.18;;;28.60;92.20;;;;;;5008497;28;20162;-88
2021/07/11 14:00:39;;;;;;;9.05;7.75;;;29.10;91.80;;;;;;4998166;28;20049;-87
2021/07/11 14:04:02;;;;;;;7.38;6.43;;;29.40;91.10;;;;;;5009181;28;20503;-86
2021/07/11 14:06:48;;;;;;;7.22;5.68;;;29.90;90.20;;;;;;4942477;29;20423;-87
2021/07/11 14:09:53;;;;;;;;;;;;;;;;;;;;;
2021/07/11 14:12:11;;;;;;;6.32;5.15;;;30.40;89.10;;;;;;5012196;28;20045;-88
2021/07/11 14:15:05;;;;;;;;;;;;;;;;;;;;;
2021/07/11 14:25:08;;;;;;;6.32;4.72;;;30.40;86.30;;;;;;4932604;29;20135;-89
2021/07/11 14:42:11;;;;;;;7.00;6.00;;;28.60;90.40;;;;;;4735506;30;20040;-84
2021/07/11 14:49:10;;;;;;;;;;;;;;;;;;;;;
2021/07/11 15:12:28;;;;;;;5.07;3.58;;;26.50;92.90;;;;;;4869755;29;20432;-88
2021/07/11 15:18:58;;;;;;;5.15;3.40;;;26.70;92.30;;;;;;4902539;29;20032;-88
2021/07/11 15:22:21;;;;;;;;;;;;;;;;;;;;;
2021/07/11 15:38:23;;;;;;;2.67;2.03;;;26.80;92.80;;;;;;4818385;23;20051;-88
2021/07/11 15:40:51;;;;;;;2.58;2.20;;;26.80;93.00;;;;;;4996617;28;20038;-88
2021/07/11 15:43:18;;;;;;;2.58;1.90;;;26.90;92.90;;;;;;5001923;28;20097;-89
2021/07/11 15:45:45;;;;;;;4.95;2.28;;;26.90;92.90;;;;;;5014492;28;20037;-91
2021/07/11 15:48:15;;;;;;;3.72;2.50;;;26.90;93.00;;;;;;5017105;28;20029;-91
2021/07/11 15:50:43;;;;;;;3.83;2.47;;;26.80;93.10;;;;;;5010736;28;20034;-91
2021/07/11 15:53:10;;;;;;;3.28;2.28;;;26.60;93.10;;;;;;5006579;28;20045;-87
2021/07/11 15:55:36;;;;;;;4.05;2.65;;;26.40;93.40;;;;;;5004705;28;20071;-89
2021/07/11 15:58:05;;;;;;;2.75;2.33;;;26.10;93.40;;;;;;5015956;28;20038;-90
2021/07/11 16:00:32;;;;;;;2.70;2.17;;;25.90;93.70;;;;;;4985996;28;20033;-87
2021/07/11 16:02:58;;;;;;;3.55;2.40;;;25.70;93.80;;;;;;4996661;28;20022;-87
2021/07/11 16:05:24;;;;;;;3.22;2.67;;;25.70;93.90;;;;;;4989508;28;20030;-89
2021/07/11 16:07:51;;;;;;;4.43;2.65;;;25.70;93.90;;;;;;5017209;28;20034;-89
2021/07/11 16:10:18;;;;;;;3.20;2.55;;;25.50;93.80;;;;;;5015762;28;20089;-92
2021/07/11 16:12:44;;;;;;;4.03;2.95;;;25.40;94.00;;;;;;5004740;28;20029;-91
2021/07/11 16:15:09;;;;;;;5.38;3.55;;;25.40;94.00;;;;;;5006318;28;20037;-88
2021/07/11 16:17:35;;;;;;;3.95;2.90;;;25.20;94.00;;;;;;5028943;28;20116;-89
2021/07/11 16:20:04;;;;;;;4.38;2.90;;;25.10;94.20;;;;;;5018352;28;20037;-88
2021/07/11 16:22:30;;;;;;;4.75;2.70;;;25.00;94.20;;;;;;5010054;28;20080;-84
2021/07/11 16:24:55;;;;;;;4.53;3.60;;;25.00;94.50;;;;;;4977368;28;20034;-85
2021/07/11 16:27:21;;;;;;;4.15;3.22;;;24.90;94.40;;;;;;4994166;28;20043;-86
2021/07/11 16:29:46;;;;;;;4.95;3.70;;;24.80;94.60;;;;;;4996406;28;20035;-87
2021/07/11 16:32:12;;;;;;;3.35;3.05;;;24.80;94.60;;;;;;4978811;28;20042;-85
2021/07/11 16:34:37;;;;;;;4.22;3.38;;;24.80;94.80;;;;;;4979208;28;20086;-87
2021/07/11 16:37:03;;;;;;;4.35;3.60;;;24.70;94.90;;;;;;4979850;28;20030;-88
2021/07/11 16:39:30;;;;;;;4.88;3.42;;;24.70;95.00;;;;;;4990062;28;20077;-87
2021/07/11 16:41:56;;;;;;;4.18;3.03;;;24.70;95.10;;;;;;4994207;28;20043;-87
2021/07/11 16:44:21;;;;;;;4.75;3.80;;;24.70;95.20;;;;;;5000873;28;20030;-85
2021/07/11 16:46:51;;;;;;;5.60;4.75;;;24.60;95.50;;;;;;4991568;28;20042;-86
2021/07/11 16:49:20;;;;;;;6.55;4.32;;;24.50;95.80;;;;;;4996511;28;20060;-86
2021/07/11 16:51:46;;;;;;;6.38;3.97;;;24.30;96.10;;;;;;5018651;28;20064;-87
2021/07/11 16:54:14;;;;;;;7.32;4.60;;;24.20;96.50;;;;;;5019234;28;20181;-89
2021/07/11 16:56:40;;;;;;;8.18;5.38;;;24.10;96.70;;;;;;5000094;28;20033;-86
2021/07/11 16:59:06;;;;;;;6.50;5.32;;;24.00;96.80;;;;;;4999573;28;20025;-87
2021/07/11 17:01:32;;;;;;;5.63;4.57;;;23.90;96.90;;;;;;5000756;28;20085;-87
2021/07/11 17:03:58;;;;;;;5.43;4.68;;;23.90;97.10;;;;;;5018914;28;20034;-86
2021/07/11 17:06:25;;;;;;;7.38;5.95;;;23.80;97.30;;;;;;4999417;28;20720;-82
2021/07/11 17:08:51;;;;;;;6.18;4.97;;;23.80;97.40;;;;;;4999455;28;20045;-88
2021/07/11 17:11:16;;;;;;;5.28;4.07;;;23.80;97.40;;;;;;5016899;28;20045;-87
2021/07/11 17:13:42;;;;;;;5.50;4.20;;;23.70;97.40;;;;;;4979262;28;20129;-86
2021/07/11 17:16:08;;;;;;;5.13;4.07;;;23.80;97.60;;;;;;4996792;28;20039;-87
2021/07/11 17:18:33;;;;;;;6.80;4.93;;;23.70;97.70;;;;;;4980690;28;20090;-86
2021/07/11 17:21:01;;;;;;;5.85;4.78;;;23.70;97.80;;;;;;4980922;28;20034;-85
2021/07/11 17:23:27;;;;;;;6.20;4.78;;;23.80;98.00;;;;;;4979140;28;20081;-85
2021/07/11 17:25:53;;;;;;;5.22;4.18;;;23.80;98.00;;;;;;4980094;28;20129;-87
2021/07/11 17:28:19;;;;;;;5.07;4.28;;;23.80;97.80;;;;;;4981115;28;20038;-87
2021/07/11 17:30:45;;;;;;;4.72;4.22;;;23.90;98.00;;;;;;4998948;28;20178;-88
2021/07/11 17:33:11;;;;;;;6.05;4.60;;;23.90;97.90;;;;;;4981657;28;20090;-88
2021/07/11 17:35:37;;;;;;;4.75;3.95;;;23.80;97.80;;;;;;4980517;28;20038;-86
2021/07/11 17:38:04;;;;;;;4.38;3.28;;;23.80;97.70;;;;;;4981360;28;20134;-88
2021/07/11 17:40:29;;;;;;;4.90;4.15;;;23.70;97.60;;;;;;4980057;28;20061;-88
2021/07/11 17:42:55;;;;;;;3.45;2.92;;;23.80;97.60;;;;;;4982998;28;20042;-84
2021/07/11 17:45:21;;;;;;;4.35;3.33;;;23.80;97.60;;;;;;4993531;28;20026;-88
2021/07/11 17:47:47;;;;;;;4.75;2.58;;;23.80;97.60;;;;;;4989594;28;20080;-89
2021/07/11 17:50:13;;;;;;;4.90;4.05;;;23.90;97.50;;;;;;4979911;28;20654;-88
2021/07/11 17:52:39;;;;;;;3.83;2.90;;;23.90;97.40;;;;;;4998325;28;20094;-89
2021/07/11 17:55:07;;;;;;;3.75;3.10;;;23.90;97.40;;;;;;4981631;28;20061;-87
2021/07/11 17:57:35;;;;;;;4.28;3.25;;;23.90;97.30;;;;;;4964090;28;20129;-86
2021/07/11 18:00:01;;;;;;;3.35;2.72;;;23.90;97.20;;;;;;4980159;28;20035;-86
2021/07/11 18:02:28;;;;;;;3.83;2.88;;;23.90;97.10;;;;;;4980305;28;20443;-89
2021/07/11 18:04:53;;;;;;;3.38;2.80;;;23.90;97.20;;;;;;4983971;28;20042;-90
2021/07/11 18:07:19;;;;;;;3.05;2.45;;;23.80;97.20;;;;;;4996216;28;20768;-88
2021/07/11 18:09:44;;;;;;;4.32;2.58;;;23.80;97.30;;;;;;4984204;28;20042;-86
2021/07/11 18:12:10;;;;;;;3.13;2.60;;;23.70;97.40;;;;;;4996492;28;20035;-86
2021/07/11 18:14:36;;;;;;;4.05;2.92;;;23.70;97.30;;;;;;4996878;28;20058;-85
2021/07/11 18:17:02;;;;;;;2.75;2.35;;;23.60;97.30;;;;;;4978067;28;20042;-87
2021/07/11 18:19:27;;;;;;;3.38;2.17;;;23.60;97.20;;;;;;4977966;28;20794;-85
2021/07/11 18:21:53;;;;;;;3.78;2.72;;;23.50;97.30;;;;;;4978207;28;20034;-85
2021/07/11 18:24:18;;;;;;;2.75;2.45;;;23.50;97.20;;;;;;4978990;28;20038;-87
2021/07/11 18:26:44;;;;;;;3.08;2.30;;;23.40;97.30;;;;;;4997146;28;20124;-87
2021/07/11 18:29:09;;;;;;;3.55;2.53;;;23.40;97.50;;;;;;4978744;28;20045;-86
2021/07/11 18:31:35;;;;;;;2.88;2.42;;;23.40;97.70;;;;;;4978974;28;20042;-87
2021/07/11 18:34:01;;;;;;;3.40;1.92;;;23.40;97.80;;;;;;4977932;28;20425;-88
2021/07/11 18:36:30;;;;;;;2.58;2.20;;;23.40;97.90;;;;;;4993436;28;20034;-85
2021/07/11 18:38:55;;;;;;;2.95;2.40;;;23.40;98.00;;;;;;4976404;28;20639;-87
2021/07/11 18:41:21;;;;;;;2.50;2.30;;;23.30;98.00;;;;;;4976820;28;20170;-86
2021/07/11 18:43:47;;;;;;;4.22;2.80;;;23.30;98.00;;;;;;4994010;28;20454;-84
2021/07/11 18:46:12;;;;;;;4.32;2.60;;;23.20;98.30;;;;;;4978049;28;20034;-86
2021/07/11 18:48:38;;;;;;;3.35;2.53;;;23.20;98.20;;;;;;4978531;28;20369;-89
2021/07/11 18:51:05;;;;;;;4.13;2.65;;;23.10;98.20;;;;;;4963746;28;20408;-88
2021/07/11 18:53:30;;;;;;;4.03;2.78;;;23.10;98.20;;;;;;4979265;28;20162;-87
2021/07/11 18:55:57;;;;;;;4.55;3.47;;;23.10;98.10;;;;;;4977725;28;20586;-85
2021/07/11 18:58:23;;;;;;;4.10;3.03;;;23.10;97.90;;;;;;4977362;28;20061;-85
2021/07/11 19:00:49;;;;;;;4.30;2.80;;;23.00;97.90;;;;;;4977070;28;20448;-86